Time;durP1;ratioP1;P1;durP2;ratioP2;P2;SDS_P1;SDS_P2;PMS_P1;PMS_P2;Temp;Humidity;BMP_temperature;BMP_pressure;BME280_temperature;BME280_humidity;BME280_pressure;Samples;Min_cycle;Max_cycle;Signal;HPM_P1;HPM_P2
2022/05/29 00:01:56;;;;;;;6.73;2.40;;;10.40;99.90;;;;;;4957775;28;20908;-79
2022/05/29 00:04:22;;;;;;;3.53;1.90;;;10.30;99.90;;;;;;4959113;28;20961;-79
2022/05/29 00:06:53;;;;;;;5.53;1.90;;;10.30;99.90;;;;;;4957217;29;20422;-80
2022/05/29 00:09:41;;;;;;;4.20;1.50;;;10.20;99.90;;;;;;4957264;29;20416;-80
2022/05/29 00:12:08;;;;;;;3.60;1.40;;;10.30;99.90;;;;;;4958631;28;20507;-80
2022/05/29 00:14:35;;;;;;;5.63;2.00;;;10.30;99.90;;;;;;4958814;28;21115;-80
2022/05/29 00:17:01;;;;;;;5.90;1.87;;;10.20;99.90;;;;;;4956464;29;20788;-80
2022/05/29 00:19:27;;;;;;;4.10;1.80;;;10.20;99.90;;;;;;4957353;29;20430;-79
2022/05/29 00:21:54;;;;;;;3.80;1.40;;;10.10;99.90;;;;;;4957055;28;20249;-79
2022/05/29 00:24:20;;;;;;;3.03;1.57;;;10.10;99.90;;;;;;4956949;29;20228;-80
2022/05/29 00:26:45;;;;;;;2.90;1.60;;;10.00;99.90;;;;;;4956486;29;20938;-79
2022/05/29 00:29:11;;;;;;;2.93;1.40;;;10.00;99.90;;;;;;4973551;28;20180;-80
2022/05/29 00:31:37;;;;;;;3.53;1.80;;;9.90;99.90;;;;;;4959615;28;20235;-80
2022/05/29 00:34:03;;;;;;;2.70;1.40;;;9.90;99.90;;;;;;4961508;29;20187;-80
2022/05/29 00:36:33;;;;;;;4.07;2.43;;;10.00;99.90;;;;;;4959423;29;20189;-80
2022/05/29 00:38:59;;;;;;;3.83;1.73;;;9.90;99.90;;;;;;4960774;28;20240;-80
2022/05/29 00:41:33;;;;;;;5.13;1.83;;;10.00;99.90;;;;;;4959141;28;20454;-80
2022/05/29 00:44:12;;;;;;;2.60;1.33;;;10.10;99.90;;;;;;4958395;28;20652;-80
2022/05/29 00:46:42;;;;;;;3.17;1.53;;;10.10;99.90;;;;;;4959854;28;20426;-80
2022/05/29 00:49:09;;;;;;;6.57;1.73;;;10.00;99.90;;;;;;4958861;29;20573;-80
2022/05/29 00:51:39;;;;;;;3.63;1.77;;;9.90;99.90;;;;;;4958612;28;20442;-80
2022/05/29 00:54:06;;;;;;;5.43;1.90;;;10.00;99.90;;;;;;4958697;29;20933;-80
2022/05/29 00:56:37;;;;;;;4.73;1.63;;;10.00;99.90;;;;;;4958169;29;20430;-80
2022/05/29 00:59:05;;;;;;;2.73;1.60;;;10.00;99.90;;;;;;4958565;29;20423;-80
2022/05/29 01:01:31;;;;;;;4.90;1.77;;;9.90;99.90;;;;;;4958254;28;20470;-79
2022/05/29 01:03:57;;;;;;;2.80;1.47;;;9.90;99.90;;;;;;4955396;29;20437;-79
2022/05/29 01:06:23;;;;;;;5.33;1.97;;;10.00;99.90;;;;;;4954945;29;20194;-79
2022/05/29 01:08:49;;;;;;;4.73;2.17;;;9.90;99.90;;;;;;4955503;29;20422;-79
2022/05/29 01:11:34;;;;;;;3.50;1.80;;;9.90;99.90;;;;;;4955387;28;20228;-79
2022/05/29 01:14:40;;;;;;;3.10;2.00;;;10.00;99.90;;;;;;4955200;29;20659;-80
2022/05/29 01:17:14;;;;;;;5.87;2.17;;;10.10;99.90;;;;;;4925156;29;20428;-79
2022/05/29 01:19:54;;;;;;;4.23;2.53;;;10.00;99.90;;;;;;4956367;29;20414;-79
2022/05/29 01:22:42;;;;;;;5.07;2.57;;;10.00;99.90;;;;;;4954607;28;20449;-80
2022/05/29 01:25:45;;;;;;;3.60;1.80;;;9.90;99.90;;;;;;4954646;29;20475;-79
2022/05/29 01:28:30;;;;;;;5.43;2.03;;;9.90;99.90;;;;;;4954621;29;21028;-80
2022/05/29 01:31:10;;;;;;;2.63;1.57;;;9.80;99.90;;;;;;4956410;28;20443;-79
2022/05/29 01:33:38;;;;;;;3.03;1.40;;;9.80;99.90;;;;;;4954220;29;20426;-79
2022/05/29 01:36:15;;;;;;;3.00;1.73;;;9.80;99.90;;;;;;4955224;29;20414;-79
2022/05/29 01:38:51;;;;;;;3.63;1.60;;;9.80;99.90;;;;;;4954265;29;20914;-79
2022/05/29 01:41:24;;;;;;;4.77;1.80;;;9.80;99.90;;;;;;4954421;28;20929;-80
2022/05/29 01:43:54;;;;;;;3.93;1.77;;;9.70;99.90;;;;;;4953958;29;20419;-79
2022/05/29 01:46:32;;;;;;;2.97;1.80;;;9.70;99.90;;;;;;4953861;29;20531;-80
2022/05/29 01:49:21;;;;;;;4.03;1.77;;;9.70;99.90;;;;;;4953849;29;20626;-79
2022/05/29 01:51:59;;;;;;;2.90;1.40;;;9.60;99.90;;;;;;4954281;28;20447;-79
2022/05/29 01:54:34;;;;;;;3.00;1.73;;;9.70;99.90;;;;;;4955142;28;20462;-80
2022/05/29 01:57:08;;;;;;;3.73;1.77;;;9.70;99.90;;;;;;4953381;28;21000;-79
2022/05/29 02:00:00;;;;;;;4.33;2.83;;;9.70;99.90;;;;;;4954695;28;20916;-79
2022/05/29 02:02:33;;;;;;;8.33;3.10;;;9.70;99.90;;;;;;4954730;28;20513;-79
2022/05/29 02:05:03;;;;;;;4.93;3.10;;;9.70;99.90;;;;;;4953899;29;20422;-79
2022/05/29 02:07:52;;;;;;;4.17;3.67;;;9.70;99.90;;;;;;4955504;29;20431;-79
2022/05/29 02:10:52;;;;;;;6.03;3.00;;;9.50;99.90;;;;;;4955989;28;20423;-79
2022/05/29 02:13:32;;;;;;;6.37;3.13;;;9.50;99.90;;;;;;4955097;29;20411;-80
2022/05/29 02:16:12;;;;;;;3.67;2.40;;;9.40;99.90;;;;;;4956359;28;20442;-79
2022/05/29 02:18:59;;;;;;;3.70;2.17;;;9.30;99.90;;;;;;4956239;28;20431;-79
2022/05/29 02:21:39;;;;;;;6.10;2.10;;;9.30;99.90;;;;;;4954708;28;20441;-79
2022/05/29 02:24:10;;;;;;;2.87;1.60;;;9.30;99.90;;;;;;4956946;28;20390;-79
2022/05/29 02:26:42;;;;;;;5.37;2.70;;;9.20;99.90;;;;;;4954672;29;20403;-79
2022/05/29 02:29:09;;;;;;;5.40;2.20;;;9.20;99.90;;;;;;4955854;28;20762;-79
2022/05/29 02:31:48;;;;;;;5.30;1.93;;;9.10;99.90;;;;;;4954394;28;20439;-79
2022/05/29 02:34:29;;;;;;;4.33;2.00;;;9.10;99.90;;;;;;4954633;29;20497;-79
2022/05/29 02:37:13;;;;;;;2.83;1.57;;;9.10;99.90;;;;;;4955406;29;20399;-79
2022/05/29 02:40:13;;;;;;;3.37;1.87;;;9.20;99.90;;;;;;4956446;28;20403;-79
2022/05/29 02:42:53;;;;;;;3.90;1.83;;;9.20;99.90;;;;;;4954433;29;20473;-80
2022/05/29 02:45:34;;;;;;;5.53;2.10;;;9.30;99.90;;;;;;4954640;29;20419;-79
2022/05/29 02:48:14;;;;;;;7.20;2.50;;;9.30;99.90;;;;;;4955632;28;20423;-79
2022/05/29 02:50:46;;;;;;;2.90;1.60;;;9.40;99.90;;;;;;4956407;28;20435;-79
2022/05/29 02:53:14;;;;;;;3.13;1.50;;;9.40;99.90;;;;;;4956095;29;20446;-79
2022/05/29 02:55:43;;;;;;;3.43;1.77;;;9.60;99.90;;;;;;4955316;28;21004;-79
2022/05/29 02:58:18;;;;;;;5.57;1.97;;;9.80;99.90;;;;;;4955483;28;20795;-79
2022/05/29 03:01:16;;;;;;;6.73;2.00;;;9.80;99.90;;;;;;4956353;28;20442;-79
2022/05/29 03:04:07;;;;;;;2.70;1.57;;;10.00;99.90;;;;;;4954223;29;20443;-80
2022/05/29 03:07:24;;;;;;;3.63;2.03;;;10.00;99.90;;;;;;4955611;28;20497;-79
2022/05/29 03:10:14;;;;;;;4.07;1.90;;;10.10;99.90;;;;;;4942631;28;20904;-80
2022/05/29 03:12:59;;;;;;;5.83;1.83;;;10.10;99.90;;;;;;4957900;29;20715;-79
2022/05/29 03:15:49;;;;;;;3.80;1.70;;;10.20;99.90;;;;;;4958930;29;20450;-79
2022/05/29 03:18:40;;;;;;;4.40;2.07;;;10.20;99.90;;;;;;4959719;28;20399;-80
2022/05/29 03:21:22;;;;;;;3.47;1.80;;;10.30;99.90;;;;;;4959266;28;20446;-79
2022/05/29 03:24:06;;;;;;;5.53;1.93;;;10.30;99.90;;;;;;4957462;29;20416;-79
2022/05/29 03:26:39;;;;;;;3.17;1.60;;;10.30;99.90;;;;;;4957418;29;20420;-80
2022/05/29 03:29:10;;;;;;;3.23;1.73;;;10.30;99.90;;;;;;4958346;29;20449;-79
2022/05/29 03:31:39;;;;;;;3.53;2.03;;;10.30;99.90;;;;;;4957743;28;20529;-79
2022/05/29 03:34:06;;;;;;;3.10;1.80;;;10.20;99.90;;;;;;4957681;29;20992;-79
2022/05/29 03:36:31;;;;;;;3.87;2.20;;;10.20;99.90;;;;;;4957086;29;20422;-79
2022/05/29 03:38:57;;;;;;;3.30;1.90;;;10.30;99.90;;;;;;4957944;29;20421;-79
2022/05/29 03:41:31;;;;;;;6.50;2.77;;;10.20;99.90;;;;;;4958516;28;20203;-79
2022/05/29 03:43:57;;;;;;;3.00;1.97;;;10.20;99.90;;;;;;4958952;28;20163;-79
2022/05/29 03:46:22;;;;;;;5.07;1.67;;;10.30;99.90;;;;;;4958399;29;20807;-79
2022/05/29 03:48:48;;;;;;;3.50;2.23;;;10.30;99.90;;;;;;4957210;29;20604;-79
2022/05/29 03:51:13;;;;;;;5.07;2.53;;;10.40;99.90;;;;;;4957319;28;20196;-79
2022/05/29 03:53:39;;;;;;;5.03;2.07;;;10.30;99.90;;;;;;4957272;29;20678;-80
2022/05/29 03:56:04;;;;;;;4.20;2.10;;;10.40;99.90;;;;;;4956623;29;20218;-79
2022/05/29 03:58:30;;;;;;;3.40;1.90;;;10.50;99.90;;;;;;4957137;29;20186;-79
2022/05/29 04:00:56;;;;;;;3.60;1.73;;;10.50;99.90;;;;;;4956491;28;20202;-79
2022/05/29 04:03:21;;;;;;;5.50;3.20;;;10.50;99.90;;;;;;4956939;29;20276;-79
2022/05/29 04:05:47;;;;;;;3.93;2.53;;;10.60;99.90;;;;;;4956437;29;20205;-79
2022/05/29 04:13:43;;;;;;;3.30;1.70;;;10.50;99.90;;;;;;4958287;29;20988;-79
2022/05/29 04:16:09;;;;;;;5.80;2.40;;;10.50;99.90;;;;;;4957571;28;20468;-80
2022/05/29 04:18:35;;;;;;;3.80;2.13;;;10.60;99.90;;;;;;4957111;28;20415;-79
2022/05/29 04:21:00;;;;;;;4.20;2.40;;;10.60;99.90;;;;;;4955819;28;20458;-79
2022/05/29 04:23:26;;;;;;;4.07;2.20;;;10.60;99.90;;;;;;4956230;29;20419;-79
2022/05/29 04:25:52;;;;;;;3.00;2.40;;;10.60;99.90;;;;;;4956272;29;20183;-80
2022/05/29 04:28:18;;;;;;;4.03;2.20;;;10.70;99.90;;;;;;4956524;29;20186;-79
2022/05/29 04:30:44;;;;;;;3.77;2.03;;;10.70;99.90;;;;;;4957503;28;20209;-80
2022/05/29 04:33:09;;;;;;;6.50;2.40;;;10.70;99.90;;;;;;4957967;29;20413;-79
2022/05/29 04:35:39;;;;;;;4.57;3.00;;;10.70;99.90;;;;;;4957373;29;20228;-80
2022/05/29 04:38:04;;;;;;;4.30;2.20;;;10.80;99.90;;;;;;4962225;28;20235;-80
2022/05/29 04:40:31;;;;;;;3.67;2.33;;;10.80;99.90;;;;;;4960361;28;20936;-80
2022/05/29 04:42:56;;;;;;;3.80;2.30;;;10.90;99.90;;;;;;4961593;28;20429;-80
2022/05/29 04:45:22;;;;;;;4.57;2.43;;;10.80;99.90;;;;;;4961512;29;20425;-79
2022/05/29 04:47:48;;;;;;;3.90;2.40;;;10.90;99.90;;;;;;4960176;29;20281;-80
2022/05/29 04:50:14;;;;;;;4.67;2.70;;;10.90;99.90;;;;;;4959443;28;20214;-80
2022/05/29 04:52:40;;;;;;;5.07;2.30;;;10.90;99.90;;;;;;4959871;28;20264;-80
2022/05/29 04:55:07;;;;;;;3.37;2.50;;;10.90;99.90;;;;;;4960873;28;20457;-80
2022/05/29 04:57:33;;;;;;;3.47;1.97;;;10.90;99.90;;;;;;4960496;28;20177;-80
2022/05/29 04:59:58;;;;;;;3.60;2.53;;;11.00;99.90;;;;;;4959021;29;20421;-80
2022/05/29 05:02:25;;;;;;;4.43;3.33;;;11.00;99.90;;;;;;4959256;28;20316;-80
2022/05/29 05:04:51;;;;;;;3.43;1.93;;;10.90;99.90;;;;;;4960623;28;20215;-80
2022/05/29 05:07:17;;;;;;;8.77;3.20;;;11.00;99.90;;;;;;4959809;28;21040;-80
2022/05/29 05:09:42;;;;;;;8.90;2.80;;;10.90;99.90;;;;;;4959978;29;20205;-80
2022/05/29 05:12:08;;;;;;;4.60;2.63;;;11.00;99.90;;;;;;4959155;28;20210;-80
2022/05/29 05:14:35;;;;;;;8.77;3.20;;;11.00;99.90;;;;;;4960672;28;20664;-80
2022/05/29 05:17:01;;;;;;;7.10;2.57;;;10.90;99.90;;;;;;4958125;29;20185;-79
2022/05/29 05:19:26;;;;;;;4.47;3.00;;;11.00;99.90;;;;;;4959734;29;20426;-80
2022/05/29 05:21:52;;;;;;;4.33;2.53;;;11.10;99.90;;;;;;4958369;28;20442;-79
2022/05/29 05:24:18;;;;;;;7.00;3.03;;;11.20;99.90;;;;;;4959751;29;20297;-80
2022/05/29 05:26:45;;;;;;;3.83;2.70;;;11.20;99.90;;;;;;4958956;28;20274;-80
2022/05/29 05:29:11;;;;;;;6.90;2.87;;;11.30;99.90;;;;;;4958266;29;20917;-80
2022/05/29 05:31:37;;;;;;;5.67;3.10;;;11.40;99.90;;;;;;4958529;28;20438;-80
2022/05/29 05:34:03;;;;;;;7.60;3.30;;;11.50;99.90;;;;;;4959089;29;20546;-80
2022/05/29 05:36:29;;;;;;;5.70;3.17;;;11.70;99.90;;;;;;4959550;28;20181;-80
2022/05/29 05:38:55;;;;;;;4.63;2.97;;;11.70;99.90;;;;;;4959056;29;20472;-80
2022/05/29 05:41:21;;;;;;;5.80;3.17;;;11.70;99.90;;;;;;4958946;28;20934;-80
2022/05/29 05:43:47;;;;;;;4.50;2.80;;;11.70;99.90;;;;;;4957506;29;20934;-80
2022/05/29 05:46:15;;;;;;;7.10;3.13;;;11.70;99.90;;;;;;4957273;29;20568;-80
2022/05/29 05:48:41;;;;;;;5.10;2.90;;;11.90;99.90;;;;;;4959022;28;20566;-80
2022/05/29 05:51:07;;;;;;;4.90;2.77;;;12.10;99.90;;;;;;4957500;28;20438;-80
2022/05/29 05:53:34;;;;;;;5.93;2.90;;;12.20;99.90;;;;;;4958904;28;20437;-80
2022/05/29 05:56:12;;;;;;;6.60;2.93;;;12.30;99.90;;;;;;4956864;29;20514;-80
2022/05/29 05:58:39;;;;;;;5.53;2.53;;;12.50;99.90;;;;;;4958689;28;20407;-80
2022/05/29 06:01:07;;;;;;;4.87;2.93;;;12.40;99.90;;;;;;4958669;28;20434;-81
2022/05/29 06:03:33;;;;;;;4.03;2.60;;;12.50;99.90;;;;;;4957625;28;20434;-80
2022/05/29 06:05:58;;;;;;;4.50;2.70;;;12.50;99.90;;;;;;4957636;29;20423;-80
2022/05/29 06:08:24;;;;;;;3.30;2.60;;;12.50;99.90;;;;;;4958035;29;20214;-80
2022/05/29 06:10:50;;;;;;;4.10;2.30;;;12.50;99.90;;;;;;4957477;28;20387;-79
2022/05/29 06:13:16;;;;;;;4.40;2.97;;;12.60;99.90;;;;;;4957468;29;20501;-79
2022/05/29 06:15:46;;;;;;;6.43;3.37;;;12.70;99.90;;;;;;4955555;29;20207;-80
2022/05/29 06:18:13;;;;;;;6.47;2.90;;;12.50;99.90;;;;;;4955841;29;20182;-79
2022/05/29 06:20:38;;;;;;;4.87;3.10;;;12.50;99.90;;;;;;4955690;28;20826;-79
2022/05/29 06:23:04;;;;;;;6.07;3.60;;;12.40;99.90;;;;;;4957135;29;20478;-80
2022/05/29 06:25:30;;;;;;;4.77;3.07;;;12.30;99.90;;;;;;4955278;29;20218;-79
2022/05/29 06:27:55;;;;;;;4.23;2.97;;;12.30;99.90;;;;;;4956783;29;20198;-80
2022/05/29 06:30:21;;;;;;;9.33;3.10;;;12.40;99.90;;;;;;4964803;23;20187;-82
2022/05/29 06:32:47;;;;;;;5.00;3.00;;;12.50;99.90;;;;;;4999678;28;20196;-83
2022/05/29 06:35:15;;;;;;;4.47;2.40;;;12.60;99.90;;;;;;5000080;28;20491;-82
2022/05/29 06:37:42;;;;;;;5.80;3.10;;;12.70;99.90;;;;;;4999467;28;20440;-82
2022/05/29 06:40:10;;;;;;;3.83;2.10;;;12.90;99.90;;;;;;4999773;28;20427;-83
2022/05/29 06:42:36;;;;;;;4.60;3.00;;;13.00;99.90;;;;;;4999330;28;20450;-81
2022/05/29 06:45:03;;;;;;;3.83;2.67;;;12.90;99.90;;;;;;4999654;28;20993;-82
2022/05/29 06:47:29;;;;;;;4.57;2.50;;;13.10;99.90;;;;;;5000147;28;20451;-82
2022/05/29 06:49:55;;;;;;;6.93;3.37;;;13.20;99.90;;;;;;4998841;28;20424;-83
2022/05/29 06:52:20;;;;;;;4.20;2.43;;;13.40;99.90;;;;;;4997545;28;20276;-80
2022/05/29 06:54:46;;;;;;;5.07;2.53;;;13.60;99.90;;;;;;4997381;28;20215;-81
2022/05/29 06:57:36;;;;;;;4.00;2.37;;;13.80;99.90;;;;;;4996773;28;20197;-81
2022/05/29 07:08:03;;;;;;;4.87;2.23;;;13.90;99.90;;;;;;5012550;28;20488;-80
2022/05/29 07:10:31;;;;;;;2.90;1.80;;;13.90;99.90;;;;;;4996631;28;20511;-80
2022/05/29 07:12:58;;;;;;;5.03;2.20;;;14.00;99.90;;;;;;4997406;28;20481;-80
2022/05/29 07:15:24;;;;;;;3.80;2.80;;;13.90;99.90;;;;;;4994751;28;20843;-80
2022/05/29 07:17:50;;;;;;;5.03;2.63;;;13.80;99.90;;;;;;4993718;28;20451;-80
2022/05/29 07:20:16;;;;;;;3.60;2.00;;;13.90;99.90;;;;;;4994365;28;20416;-80
2022/05/29 07:22:43;;;;;;;3.83;2.30;;;14.00;99.90;;;;;;4994512;28;20416;-82
2022/05/29 07:25:11;;;;;;;3.73;2.17;;;14.10;99.90;;;;;;4994658;28;21026;-82
2022/05/29 07:27:38;;;;;;;3.40;1.73;;;14.00;99.90;;;;;;4994623;28;20447;-82
2022/05/29 07:30:05;;;;;;;4.30;2.17;;;14.00;99.90;;;;;;4994809;28;20420;-82
2022/05/29 07:32:31;;;;;;;4.30;2.40;;;13.90;99.90;;;;;;4994440;28;20435;-80
2022/05/29 07:35:00;;;;;;;5.27;2.83;;;13.80;99.90;;;;;;4994383;28;20924;-83
2022/05/29 07:37:26;;;;;;;3.33;2.60;;;13.90;99.90;;;;;;4994420;28;20442;-81
2022/05/29 07:39:53;;;;;;;4.20;2.60;;;14.00;99.90;;;;;;4994661;28;20420;-83
2022/05/29 07:45:06;;;;;;;4.80;2.60;;;14.00;99.90;;;;;;5012482;28;20442;-83
2022/05/29 07:47:38;;;;;;;4.50;2.30;;;14.00;99.90;;;;;;4994578;28;20446;-82
2022/05/29 07:50:05;;;;;;;3.40;2.10;;;14.00;99.90;;;;;;4994390;28;20548;-82
2022/05/29 07:52:30;;;;;;;3.47;2.17;;;13.90;99.90;;;;;;4994506;28;20478;-84
2022/05/29 07:54:56;;;;;;;5.50;2.90;;;13.90;99.90;;;;;;4997817;28;20463;-83
2022/05/29 07:57:22;;;;;;;6.77;3.10;;;13.70;99.90;;;;;;4997937;28;20225;-82
2022/05/29 07:59:48;;;;;;;5.93;2.70;;;13.70;99.90;;;;;;4998180;28;20178;-83
2022/05/29 08:02:14;;;;;;;4.07;2.60;;;13.70;99.90;;;;;;4997693;28;20544;-81
2022/05/29 08:04:42;;;;;;;4.13;2.40;;;13.90;99.90;;;;;;4997611;28;20213;-83
2022/05/29 08:07:09;;;;;;;4.60;2.33;;;13.80;99.90;;;;;;4997524;28;20951;-82
2022/05/29 08:09:35;;;;;;;3.33;2.13;;;13.90;99.90;;;;;;4997911;28;20976;-82
2022/05/29 08:12:01;;;;;;;4.13;3.10;;;14.00;99.90;;;;;;4997907;28;20424;-82
2022/05/29 08:14:27;;;;;;;5.50;2.30;;;14.00;99.90;;;;;;4997622;28;20513;-83
2022/05/29 08:16:53;;;;;;;6.00;2.97;;;13.90;99.90;;;;;;4997191;28;20626;-83
2022/05/29 08:19:18;;;;;;;7.13;3.10;;;14.00;99.90;;;;;;4997626;28;20497;-83
2022/05/29 08:21:44;;;;;;;4.47;2.60;;;14.10;99.90;;;;;;4997309;28;20435;-82
2022/05/29 08:32:23;;;;;;;4.40;3.50;;;14.90;99.90;;;;;;5015239;28;20482;-83
2022/05/29 08:34:49;;;;;;;3.67;2.80;;;15.10;99.90;;;;;;4997244;28;20463;-82
2022/05/29 08:37:14;;;;;;;5.27;3.00;;;15.40;99.90;;;;;;4996957;28;20456;-81
2022/05/29 08:39:43;;;;;;;3.40;2.70;;;16.40;99.90;;;;;;4997293;28;20177;-84
2022/05/29 08:42:16;;;;;;;3.40;2.07;;;17.40;99.90;;;;;;4997041;28;20185;-81
2022/05/29 08:44:50;;;;;;;3.63;2.47;;;18.60;99.90;;;;;;4996977;28;20436;-81
2022/05/29 08:47:22;;;;;;;3.17;2.00;;;18.50;99.90;;;;;;4996727;28;20881;-81
2022/05/29 08:49:48;;;;;;;4.50;2.27;;;17.90;99.90;;;;;;4997414;28;20425;-81
2022/05/29 08:52:39;;;;;;;8.20;2.50;;;17.20;99.90;;;;;;4997827;28;20931;-83
2022/05/29 08:55:24;;;;;;;3.67;2.03;;;16.50;99.90;;;;;;5002803;28;20604;-84
2022/05/29 08:58:11;;;;;;;6.93;2.10;;;16.00;99.90;;;;;;5008835;28;20443;-83
2022/05/29 09:00:53;;;;;;;3.20;1.90;;;;;;;;;;5008549;28;20415;-83
2022/05/29 09:03:31;;;;;;;3.90;1.93;;;15.10;99.90;;;;;;5003691;28;20491;-83
2022/05/29 09:06:06;;;;;;;5.00;2.50;;;15.00;99.90;;;;;;5003231;28;20458;-82
2022/05/29 09:08:51;;;;;;;4.30;2.47;;;15.10;99.90;;;;;;5000351;28;20458;-82
2022/05/29 09:11:24;;;;;;;5.30;1.93;;;15.50;99.90;;;;;;5008093;28;20795;-82
2022/05/29 09:14:05;;;;;;;4.10;2.07;;;18.20;99.90;;;;;;4997241;28;20447;-82
2022/05/29 09:16:40;;;;;;;4.10;2.17;;;20.90;99.90;;;;;;4998107;28;20467;-82
2022/05/29 09:19:10;;;;;;;4.17;2.07;;;23.40;99.90;;;;;;4997752;28;20419;-83
2022/05/29 09:22:12;;;;;;;5.27;2.83;;;25.00;97.70;;;;;;4995826;28;20940;-83
2022/05/29 09:24:50;;;;;;;4.10;1.77;;;26.70;85.10;;;;;;4972457;28;20432;-84
2022/05/29 09:27:17;;;;;;;4.00;2.00;;;27.60;72.40;;;;;;4997249;28;21054;-83
2022/05/29 09:29:43;;;;;;;2.83;1.63;;;26.40;65.40;;;;;;4996779;28;20916;-82
2022/05/29 09:32:24;;;;;;;4.40;1.70;;;25.50;67.60;;;;;;4996400;28;20905;-82
2022/05/29 09:35:26;;;;;;;3.77;1.90;;;23.70;67.30;;;;;;4996336;28;21036;-82
2022/05/29 09:38:33;;;;;;;2.90;1.70;;;22.40;73.30;;;;;;4994407;28;20833;-82
2022/05/29 09:41:31;;;;;;;3.53;1.70;;;21.10;79.50;;;;;;4996371;28;20447;-81
2022/05/29 09:44:09;;;;;;;4.43;2.03;;;19.80;91.90;;;;;;4995967;28;20412;-84
2022/05/29 09:46:41;;;;;;;3.63;1.90;;;18.70;99.90;;;;;;4984727;28;20564;-83
2022/05/29 09:52:13;;;;;;;3.33;1.70;;;17.10;99.90;;;;;;4993510;28;20404;-84
2022/05/29 09:54:53;;;;;;;5.73;1.87;;;16.50;99.90;;;;;;4976382;28;20456;-83
2022/05/29 09:57:31;;;;;;;4.87;1.97;;;15.80;99.90;;;;;;4975551;28;20456;-84
2022/05/29 10:00:00;;;;;;;3.47;2.10;;;15.00;99.90;;;;;;4976217;28;20415;-84
2022/05/29 10:02:31;;;;;;;5.20;1.80;;;14.50;99.90;;;;;;4975650;28;20483;-83
2022/05/29 10:04:59;;;;;;;4.10;1.93;;;14.00;99.90;;;;;;4962855;28;20464;-84
2022/05/29 10:07:45;;;;;;;3.60;1.57;;;13.80;99.90;;;;;;4975661;28;20444;-84
2022/05/29 10:10:26;;;;;;;3.00;1.87;;;13.80;99.90;;;;;;4975697;28;20494;-83
2022/05/29 10:12:58;;;;;;;5.80;2.00;;;13.80;99.90;;;;;;4975769;28;20440;-83
2022/05/29 10:15:27;;;;;;;3.03;1.53;;;13.70;99.90;;;;;;4976282;28;21034;-82
2022/05/29 10:18:09;;;;;;;4.67;3.10;;;13.80;99.90;;;;;;4976290;28;20441;-82
2022/05/29 10:20:41;;;;;;;2.70;1.50;;;13.80;99.90;;;;;;4976100;28;20508;-82
2022/05/29 10:23:13;;;;;;;2.40;1.50;;;13.90;99.90;;;;;;4975564;28;20775;-82
2022/05/29 10:25:53;;;;;;;4.77;1.67;;;14.10;99.90;;;;;;4975612;28;20833;-81
2022/05/29 10:28:26;;;;;;;2.90;1.30;;;14.50;99.90;;;;;;4975941;28;20459;-83
2022/05/29 10:30:58;;;;;;;3.00;1.30;;;15.10;99.90;;;;;;4980968;28;20448;-81
2022/05/29 10:33:27;;;;;;;3.10;1.30;;;15.50;99.90;;;;;;4988344;28;20476;-83
2022/05/29 10:36:10;;;;;;;3.73;1.40;;;16.20;99.90;;;;;;4979347;28;20534;-82
2022/05/29 10:38:39;;;;;;;3.17;1.27;;;17.00;99.90;;;;;;4977845;28;20453;-82
2022/05/29 10:41:06;;;;;;;2.87;1.33;;;18.10;99.90;;;;;;4979650;28;20432;-82
2022/05/29 10:43:48;;;;;;;2.40;1.40;;;18.80;99.90;;;;;;4981494;28;20952;-82
2022/05/29 10:46:22;;;;;;;4.40;1.80;;;19.20;99.90;;;;;;4986886;28;20436;-82
2022/05/29 10:49:26;;;;;;;4.47;1.40;;;19.40;99.90;;;;;;4995933;28;20676;-82
2022/05/29 10:52:00;;;;;;;4.50;1.50;;;19.40;99.90;;;;;;4998724;28;20430;-83
2022/05/29 10:54:53;;;;;;;4.27;1.80;;;19.00;99.90;;;;;;5000997;28;20408;-84
2022/05/29 10:57:44;;;;;;;2.73;1.70;;;18.20;99.90;;;;;;5002250;28;20502;-83
2022/05/29 11:00:18;;;;;;;5.20;2.13;;;17.90;99.90;;;;;;5000771;28;20436;-82
2022/05/29 11:03:23;;;;;;;4.87;1.73;;;17.80;99.90;;;;;;4996545;28;20515;-84
2022/05/29 11:06:01;;;;;;;3.20;1.67;;;18.00;99.90;;;;;;4989905;28;20446;-81
2022/05/29 11:08:42;;;;;;;2.90;1.43;;;18.00;99.90;;;;;;4995029;28;20479;-82
2022/05/29 11:11:16;;;;;;;3.33;2.20;;;18.40;99.90;;;;;;5011946;28;20487;-81
2022/05/29 11:13:58;;;;;;;3.97;2.10;;;18.40;99.90;;;;;;4995466;28;20903;-82
2022/05/29 11:17:01;;;;;;;4.13;1.90;;;18.40;99.90;;;;;;4994080;28;20459;-82
2022/05/29 11:19:49;;;;;;;3.37;1.30;;;18.50;99.90;;;;;;4994697;28;20427;-82
2022/05/29 11:22:36;;;;;;;2.40;1.00;;;18.60;99.90;;;;;;4994400;28;20485;-83
2022/05/29 11:25:21;;;;;;;3.17;1.50;;;18.80;99.90;;;;;;4994844;28;20412;-83
2022/05/29 11:27:59;;;;;;;4.20;1.20;;;19.00;99.90;;;;;;5012213;28;20436;-82
2022/05/29 11:30:42;;;;;;;4.40;1.30;;;19.20;99.90;;;;;;4998810;28;20519;-82
2022/05/29 11:33:23;;;;;;;4.60;1.80;;;19.00;99.90;;;;;;4998984;28;20502;-81
2022/05/29 11:36:23;;;;;;;2.60;1.50;;;18.60;99.90;;;;;;5016062;28;20859;-82
2022/05/29 11:39:18;;;;;;;2.57;1.33;;;18.00;99.90;;;;;;4998557;28;20448;-82
2022/05/29 11:41:54;;;;;;;2.83;1.30;;;17.90;99.90;;;;;;4992192;28;20478;-82
2022/05/29 11:44:47;;;;;;;3.80;1.53;;;17.90;99.90;;;;;;5000654;28;20419;-84
2022/05/29 11:53:30;;;;;;;2.10;0.90;;;17.20;99.90;;;;;;5000652;28;20418;-82
2022/05/29 11:55:59;;;;;;;3.20;1.20;;;16.90;99.90;;;;;;5011284;28;20562;-84
2022/05/29 11:58:28;;;;;;;2.43;1.00;;;16.30;99.90;;;;;;5008685;28;20432;-83
2022/05/29 12:01:04;;;;;;;6.30;1.40;;;16.00;99.90;;;;;;5008842;28;20416;-83
2022/05/29 12:03:39;;;;;;;3.20;1.40;;;15.60;99.90;;;;;;5003234;28;20795;-83
2022/05/29 12:06:15;;;;;;;2.50;1.13;;;15.20;99.90;;;;;;5000512;28;20485;-81
2022/05/29 12:09:09;;;;;;;2.40;1.37;;;14.80;99.90;;;;;;5000545;28;20445;-80
2022/05/29 12:11:42;;;;;;;2.40;1.30;;;14.40;99.90;;;;;;4997520;28;20436;-83
2022/05/29 12:14:19;;;;;;;3.57;1.10;;;14.10;99.90;;;;;;4998349;28;20459;-82
2022/05/29 12:16:48;;;;;;;2.83;1.57;;;13.90;99.90;;;;;;4998463;28;20839;-83
2022/05/29 12:19:25;;;;;;;2.57;1.37;;;14.20;99.90;;;;;;4999130;28;20420;-83
2022/05/29 12:22:02;;;;;;;2.40;1.37;;;14.70;99.90;;;;;;4997179;28;20420;-83
2022/05/29 12:24:34;;;;;;;3.40;1.97;;;15.40;99.90;;;;;;4996599;28;20440;-80
2022/05/29 12:27:09;;;;;;;3.43;1.80;;;15.90;99.90;;;;;;4996871;28;21002;-81
2022/05/29 12:29:57;;;;;;;3.20;1.60;;;16.20;99.90;;;;;;4997625;28;20416;-80
2022/05/29 12:32:30;;;;;;;5.30;2.10;;;16.70;99.90;;;;;;4996542;28;20447;-80
2022/05/29 12:35:01;;;;;;;3.50;2.47;;;;;;;;;;4997233;28;20544;-80
2022/05/29 12:38:01;;;;;;;3.70;2.10;;;17.40;99.90;;;;;;4996972;28;20494;-81
2022/05/29 12:40:54;;;;;;;2.93;1.73;;;17.90;99.90;;;;;;4996648;28;20920;-79
2022/05/29 12:44:01;;;;;;;3.00;1.43;;;18.00;99.90;;;;;;4997397;28;20420;-79
2022/05/29 12:47:26;;;;;;;3.27;1.80;;;18.00;99.90;;;;;;4989090;28;20416;-81
2022/05/29 12:50:48;;;;;;;2.20;1.30;;;17.90;99.90;;;;;;4956901;28;20887;-82
2022/05/29 12:53:42;;;;;;;3.10;1.50;;;17.80;99.90;;;;;;4901761;29;20520;-81
2022/05/29 12:56:36;;;;;;;2.73;1.40;;;17.30;99.90;;;;;;4920583;29;20498;-81
2022/05/29 12:59:23;;;;;;;2.30;1.20;;;16.80;99.90;;;;;;4995693;28;20941;-81
2022/05/29 13:02:23;;;;;;;3.13;1.57;;;16.30;99.90;;;;;;4997484;28;20408;-82
2022/05/29 13:04:58;;;;;;;2.70;1.53;;;15.90;99.90;;;;;;4998746;28;20416;-81
2022/05/29 13:07:33;;;;;;;2.30;1.07;;;15.80;99.90;;;;;;4997535;28;20982;-80
2022/05/29 13:10:05;;;;;;;2.60;1.20;;;15.70;99.90;;;;;;4997295;28;20423;-81
2022/05/29 13:12:40;;;;;;;2.97;1.17;;;15.90;99.90;;;;;;4996709;28;20487;-80
2022/05/29 13:15:10;;;;;;;3.60;1.30;;;16.30;99.90;;;;;;4998726;28;20459;-80
2022/05/29 13:17:38;;;;;;;3.90;1.10;;;16.50;99.90;;;;;;5000129;28;20962;-81
2022/05/29 13:20:11;;;;;;;2.97;1.00;;;16.70;99.90;;;;;;4982008;28;20436;-83
2022/05/29 13:23:00;;;;;;;2.10;1.00;;;17.10;99.90;;;;;;5000620;28;20456;-82
2022/05/29 13:25:36;;;;;;;2.00;0.90;;;17.50;99.90;;;;;;4983789;28;20465;-82
2022/05/29 13:28:28;;;;;;;2.73;0.90;;;18.00;99.90;;;;;;4977376;28;20815;-82
2022/05/29 13:31:08;;;;;;;2.17;0.90;;;19.00;99.90;;;;;;4977299;28;20448;-81
2022/05/29 13:33:44;;;;;;;2.77;1.00;;;19.60;99.90;;;;;;4978781;28;20512;-81
2022/05/29 13:36:31;;;;;;;2.23;1.10;;;19.20;99.90;;;;;;4978689;28;20983;-81
2022/05/29 13:38:57;;;;;;;2.10;0.90;;;19.10;99.90;;;;;;4987940;28;20512;-81
2022/05/29 13:41:32;;;;;;;2.40;1.47;;;19.30;99.90;;;;;;4978721;28;20421;-82
2022/05/29 13:44:31;;;;;;;2.20;1.10;;;19.50;99.90;;;;;;4979886;28;20424;-82
2022/05/29 13:47:19;;;;;;;2.47;1.27;;;19.80;99.90;;;;;;4979047;28;20445;-81
2022/05/29 13:49:45;;;;;;;3.23;1.03;;;20.00;99.90;;;;;;4981827;28;20421;-81
2022/05/29 13:52:17;;;;;;;2.53;1.00;;;19.90;99.90;;;;;;4981184;28;20453;-82
2022/05/29 13:54:46;;;;;;;2.97;1.23;;;19.80;99.90;;;;;;4983960;28;20460;-82
2022/05/29 14:04:01;;;;;;;2.23;0.97;;;18.90;99.90;;;;;;4998651;28;20971;-81
2022/05/29 14:06:40;;;;;;;3.83;1.30;;;18.70;99.90;;;;;;4990082;28;20424;-81